Time;durP1;ratioP1;P1;durP2;ratioP2;P2;SDS_P1;SDS_P2;PMS_P1;PMS_P2;Temp;Humidity;BMP_temperature;BMP_pressure;BME280_temperature;BME280_humidity;BME280_pressure;Samples;Min_cycle;Max_cycle;Signal;HPM_P1;HPM_P2
2023/09/23 00:01:17;;;;;;;2.13;0.70;;;14.70;99.90;;;;;;5029448;28;20521;-75
2023/09/23 00:04:03;;;;;;;2.17;0.80;;;14.80;99.90;;;;;;5018601;28;20065;-75
2023/09/23 00:06:49;;;;;;;1.60;0.80;;;14.80;99.90;;;;;;5041339;28;20146;-75
2023/09/23 00:09:36;;;;;;;2.75;1.00;;;14.70;99.90;;;;;;5015800;28;20351;-75
2023/09/23 00:12:22;;;;;;;3.00;1.00;;;14.60;99.90;;;;;;5004144;28;20541;-75
2023/09/23 00:15:12;;;;;;;3.50;1.10;;;14.60;99.90;;;;;;5017824;28;20044;-75
2023/09/23 00:17:58;;;;;;;3.30;0.90;;;14.70;99.90;;;;;;5018219;28;20069;-75
2023/09/23 00:20:45;;;;;;;4.70;1.50;;;14.70;99.90;;;;;;5026310;28;20057;-75
2023/09/23 00:23:34;;;;;;;7.07;1.77;;;14.60;99.90;;;;;;5032300;28;20603;-75
2023/09/23 00:26:22;;;;;;;3.58;1.50;;;14.60;99.90;;;;;;5007774;28;20132;-75
2023/09/23 00:29:08;;;;;;;4.13;1.50;;;14.50;99.90;;;;;;5020998;28;20041;-75
2023/09/23 00:31:55;;;;;;;3.60;1.58;;;14.40;99.90;;;;;;5029764;28;20041;-75
2023/09/23 00:34:41;;;;;;;5.55;1.70;;;14.40;99.90;;;;;;5023572;28;20057;-75
2023/09/23 00:37:27;;;;;;;3.58;1.25;;;14.30;99.90;;;;;;5024013;28;20042;-75
2023/09/23 00:40:17;;;;;;;3.45;1.40;;;14.30;99.90;;;;;;5027965;28;20211;-75
2023/09/23 00:43:06;;;;;;;3.35;1.30;;;14.30;99.90;;;;;;5042837;28;20041;-75
2023/09/23 00:45:54;;;;;;;3.92;1.50;;;14.20;99.90;;;;;;5001051;28;20358;-76
2023/09/23 00:48:43;;;;;;;7.03;1.50;;;14.20;99.90;;;;;;5040009;28;20056;-76
2023/09/23 00:51:30;;;;;;;3.22;1.48;;;14.20;99.90;;;;;;5032895;28;20041;-76
2023/09/23 00:54:21;;;;;;;5.07;1.50;;;14.10;99.90;;;;;;5011551;28;20056;-76
2023/09/23 00:57:07;;;;;;;3.75;1.70;;;14.10;99.90;;;;;;5033135;28;20029;-76
2023/09/23 00:59:53;;;;;;;5.00;1.90;;;14.00;99.90;;;;;;5007481;28;20572;-76
2023/09/23 01:02:40;;;;;;;6.40;2.03;;;14.00;99.90;;;;;;5021509;28;20044;-76
2023/09/23 01:05:29;;;;;;;4.30;2.33;;;14.00;99.90;;;;;;5021519;28;20040;-76
2023/09/23 01:08:22;;;;;;;4.88;2.28;;;13.90;99.90;;;;;;5021919;28;20048;-75
2023/09/23 01:11:08;;;;;;;3.60;1.70;;;13.90;99.90;;;;;;5029372;28;20037;-76
2023/09/23 01:13:54;;;;;;;5.63;2.00;;;13.90;99.90;;;;;;5026144;28;20411;-76
2023/09/23 01:16:41;;;;;;;5.38;2.15;;;13.90;99.90;;;;;;5028128;28;20441;-76
2023/09/23 01:19:29;;;;;;;7.90;2.58;;;13.80;99.90;;;;;;5007419;28;20049;-76
2023/09/23 01:22:23;;;;;;;6.25;2.30;;;13.70;99.90;;;;;;5036521;28;20057;-77
2023/09/23 01:25:09;;;;;;;7.85;2.35;;;13.70;99.90;;;;;;4999688;28;20034;-76
2023/09/23 01:27:55;;;;;;;4.35;2.10;;;13.70;99.90;;;;;;5001804;28;20049;-77
2023/09/23 01:30:45;;;;;;;6.35;2.17;;;13.60;99.90;;;;;;5006700;28;20365;-76
2023/09/23 01:33:32;;;;;;;5.10;2.10;;;13.60;99.90;;;;;;5013569;28;20045;-76
2023/09/23 01:36:18;;;;;;;7.60;2.33;;;13.60;99.90;;;;;;5035736;28;20557;-76
2023/09/23 01:39:07;;;;;;;4.40;2.25;;;13.60;99.90;;;;;;5025396;28;20120;-77
2023/09/23 01:41:54;;;;;;;4.70;1.90;;;13.50;99.90;;;;;;5034211;28;20040;-77
2023/09/23 01:44:41;;;;;;;4.57;2.10;;;13.50;99.90;;;;;;5037189;28;20048;-77
2023/09/23 01:47:27;;;;;;;3.58;1.70;;;13.50;99.90;;;;;;5031077;28;20042;-77
2023/09/23 01:50:13;;;;;;;3.03;1.33;;;13.50;99.90;;;;;;5036405;28;20132;-76
2023/09/23 01:53:00;;;;;;;5.97;1.40;;;13.50;99.90;;;;;;5037812;28;20046;-76
2023/09/23 01:55:46;;;;;;;3.33;1.63;;;13.50;99.90;;;;;;5018220;28;20046;-76
2023/09/23 01:58:32;;;;;;;4.38;1.98;;;13.40;99.90;;;;;;5003552;28;20809;-76
2023/09/23 02:01:19;;;;;;;4.50;2.08;;;13.40;99.90;;;;;;5009771;28;20048;-76
2023/09/23 02:04:07;;;;;;;4.47;1.80;;;13.40;99.90;;;;;;5019956;28;20042;-75
2023/09/23 02:06:53;;;;;;;;;;;13.50;99.90;;;;;;5006299;28;20038;-76
2023/09/23 02:09:39;;;;;;;3.33;1.58;;;13.50;99.90;;;;;;5019831;28;19955;-76
2023/09/23 02:12:25;;;;;;;3.25;1.52;;;13.60;99.90;;;;;;4997016;28;20052;-76
2023/09/23 02:15:15;;;;;;;3.90;1.70;;;13.60;99.90;;;;;;5018231;28;20048;-77
2023/09/23 02:18:04;;;;;;;3.78;1.30;;;13.70;99.90;;;;;;4999183;28;20069;-76
2023/09/23 02:20:50;;;;;;;6.38;1.60;;;13.60;99.90;;;;;;4995113;28;20541;-76
2023/09/23 02:23:36;;;;;;;6.47;2.10;;;13.70;99.90;;;;;;4998297;28;20052;-76
2023/09/23 02:26:24;;;;;;;3.05;1.42;;;13.70;99.90;;;;;;5019894;28;20033;-76
2023/09/23 02:29:10;;;;;;;3.80;1.50;;;13.70;99.90;;;;;;5033598;28;20053;-76
2023/09/23 02:31:56;;;;;;;2.65;1.42;;;13.70;99.90;;;;;;5023064;28;20045;-76
2023/09/23 02:34:45;;;;;;;3.97;1.40;;;13.60;99.90;;;;;;5008069;28;20129;-77
2023/09/23 02:37:31;;;;;;;3.75;1.23;;;13.60;99.90;;;;;;4996476;28;20053;-76
2023/09/23 02:40:17;;;;;;;1.88;1.02;;;13.60;99.90;;;;;;5022587;28;20037;-76
2023/09/23 02:43:04;;;;;;;3.15;1.10;;;13.60;99.90;;;;;;4995402;28;20038;-76
2023/09/23 02:45:50;;;;;;;1.38;0.80;;;13.50;99.90;;;;;;5013112;28;20040;-76
2023/09/23 02:48:36;;;;;;;2.83;0.75;;;13.50;99.90;;;;;;5021929;28;20051;-76
2023/09/23 02:51:23;;;;;;;4.40;0.82;;;13.60;99.90;;;;;;5021743;28;20068;-76
2023/09/23 02:54:11;;;;;;;2.28;0.93;;;13.50;99.90;;;;;;5022891;28;20038;-76
2023/09/23 02:56:57;;;;;;;3.25;1.15;;;13.50;99.90;;;;;;5036026;28;20485;-75
2023/09/23 02:59:44;;;;;;;2.15;0.88;;;13.50;99.90;;;;;;5015165;28;20041;-75
2023/09/23 03:02:30;;;;;;;2.25;0.90;;;13.50;99.90;;;;;;5022593;28;20116;-76
2023/09/23 03:05:17;;;;;;;1.42;0.88;;;13.40;99.90;;;;;;5018070;28;20065;-75
2023/09/23 03:08:03;;;;;;;1.77;0.60;;;13.50;99.90;;;;;;5008325;28;20425;-76
2023/09/23 03:10:51;;;;;;;2.15;0.93;;;13.50;99.90;;;;;;5035520;28;20774;-76
2023/09/23 03:13:39;;;;;;;1.38;0.80;;;13.50;99.90;;;;;;4996217;28;20056;-76
2023/09/23 03:16:31;;;;;;;1.90;0.82;;;13.50;99.90;;;;;;5009163;28;20057;-76
2023/09/23 03:19:22;;;;;;;2.38;1.00;;;13.50;99.90;;;;;;4990175;28;20041;-76
2023/09/23 03:22:09;;;;;;;3.40;1.13;;;13.50;99.90;;;;;;5002193;28;20076;-76
2023/09/23 03:24:57;;;;;;;3.10;0.90;;;13.50;99.90;;;;;;5001692;28;20034;-76
2023/09/23 03:27:43;;;;;;;1.63;0.88;;;13.50;99.90;;;;;;4999656;28;20042;-75
2023/09/23 03:30:29;;;;;;;2.45;1.08;;;13.40;99.90;;;;;;4999335;28;20034;-76
2023/09/23 03:33:18;;;;;;;1.98;0.80;;;13.40;99.90;;;;;;5001816;28;20112;-76
2023/09/23 03:36:09;;;;;;;;;;;13.40;99.90;;;;;;4982102;28;20076;-76
2023/09/23 03:38:56;;;;;;;3.50;0.88;;;13.30;99.90;;;;;;5015010;28;19914;-76
2023/09/23 03:41:46;;;;;;;2.80;0.77;;;13.30;99.90;;;;;;5000086;28;20042;-76
2023/09/23 03:44:35;;;;;;;2.72;0.88;;;13.30;99.90;;;;;;5015921;28;20038;-76
2023/09/23 03:47:23;;;;;;;2.13;0.82;;;13.20;99.90;;;;;;5014139;28;20045;-76
2023/09/23 03:50:10;;;;;;;3.70;1.05;;;13.30;99.90;;;;;;5000948;28;20046;-77
2023/09/23 03:52:56;;;;;;;4.32;1.00;;;13.20;99.90;;;;;;5015103;28;20631;-76
2023/09/23 03:55:42;;;;;;;1.40;0.70;;;13.20;99.90;;;;;;5003285;28;20048;-76
2023/09/23 03:58:28;;;;;;;2.72;1.25;;;13.20;99.90;;;;;;5016524;28;20057;-76
2023/09/23 04:01:14;;;;;;;2.80;0.80;;;13.20;99.90;;;;;;4992157;28;20030;-76
2023/09/23 04:04:01;;;;;;;1.60;0.90;;;13.20;99.90;;;;;;5014788;28;20045;-76
2023/09/23 04:06:47;;;;;;;3.38;1.08;;;13.20;99.90;;;;;;5001926;28;20034;-76
2023/09/23 04:09:33;;;;;;;4.15;1.13;;;13.10;99.90;;;;;;5000582;28;20430;-76
2023/09/23 04:12:19;;;;;;;2.47;0.82;;;13.20;99.90;;;;;;4996331;28;20856;-76
2023/09/23 04:15:07;;;;;;;1.50;0.73;;;13.20;99.90;;;;;;4987108;28;20057;-76
2023/09/23 04:17:53;;;;;;;2.92;0.85;;;13.30;99.90;;;;;;5015741;28;20789;-76
2023/09/23 04:20:43;;;;;;;4.28;0.88;;;13.30;99.90;;;;;;4980560;28;20371;-76
2023/09/23 04:23:30;;;;;;;1.55;0.80;;;13.40;99.90;;;;;;4981530;28;20415;-76
2023/09/23 04:26:16;;;;;;;1.20;0.68;;;13.40;99.90;;;;;;4981303;28;20034;-76
2023/09/23 04:29:01;;;;;;;1.88;0.82;;;13.40;99.90;;;;;;5016891;28;20073;-76
2023/09/23 04:31:49;;;;;;;1.85;0.98;;;13.30;99.90;;;;;;4981002;28;20056;-76
2023/09/23 04:34:36;;;;;;;2.38;0.80;;;13.30;99.90;;;;;;4993944;28;20141;-76
2023/09/23 04:37:23;;;;;;;1.40;0.80;;;13.30;99.90;;;;;;4980884;28;20056;-76
2023/09/23 04:40:10;;;;;;;1.65;0.90;;;13.30;99.90;;;;;;4977169;28;20192;-76
2023/09/23 04:42:56;;;;;;;2.47;0.80;;;13.20;99.90;;;;;;4978877;28;20050;-76
2023/09/23 04:45:42;;;;;;;1.65;0.88;;;13.30;99.90;;;;;;4958179;28;20065;-76
2023/09/23 04:48:30;;;;;;;3.05;1.10;;;13.20;99.90;;;;;;4987543;28;20033;-76
2023/09/23 04:51:17;;;;;;;3.90;0.98;;;13.20;99.90;;;;;;4979390;28;20039;-76
2023/09/23 04:54:03;;;;;;;2.72;0.88;;;13.20;99.90;;;;;;4993465;28;20088;-77
2023/09/23 04:56:49;;;;;;;2.55;1.15;;;13.20;99.90;;;;;;4990880;28;20122;-76
2023/09/23 04:59:35;;;;;;;2.03;1.00;;;13.20;99.90;;;;;;4983765;28;20417;-76
2023/09/23 05:02:21;;;;;;;1.73;0.90;;;13.20;99.90;;;;;;5000827;28;20051;-76
2023/09/23 05:05:09;;;;;;;2.42;0.85;;;13.20;99.90;;;;;;5004679;28;20038;-76
2023/09/23 05:07:55;;;;;;;;;;;13.20;99.90;;;;;;5007185;28;20475;-77
2023/09/23 05:10:41;;;;;;;1.30;0.80;;;13.20;99.90;;;;;;4980758;28;19918;-76
2023/09/23 05:13:29;;;;;;;1.60;0.90;;;13.20;99.90;;;;;;4973277;28;20042;-76
2023/09/23 05:16:15;;;;;;;1.65;1.20;;;13.20;99.90;;;;;;5009204;28;20043;-76
2023/09/23 05:19:01;;;;;;;1.73;0.88;;;13.30;99.90;;;;;;4982636;28;20082;-77
2023/09/23 05:21:47;;;;;;;1.20;0.77;;;13.30;99.90;;;;;;4999294;28;20128;-76
2023/09/23 05:24:33;;;;;;;2.75;1.13;;;13.20;99.90;;;;;;4999803;28;20083;-76
2023/09/23 05:27:20;;;;;;;3.15;1.33;;;13.20;99.90;;;;;;5032343;28;20048;-76
2023/09/23 05:30:07;;;;;;;3.30;1.30;;;13.00;99.90;;;;;;5039396;28;20110;-76
2023/09/23 05:32:53;;;;;;;2.92;1.55;;;13.00;99.90;;;;;;5040149;28;20083;-76
2023/09/23 05:35:39;;;;;;;4.05;1.30;;;12.90;99.90;;;;;;5053230;28;20040;-76
2023/09/23 05:38:26;;;;;;;1.98;1.15;;;12.90;99.90;;;;;;5008608;28;20049;-76
2023/09/23 05:41:11;;;;;;;5.20;1.80;;;13.00;99.90;;;;;;5020392;28;20520;-76
2023/09/23 05:43:57;;;;;;;2.90;2.10;;;13.00;99.90;;;;;;4993279;28;20045;-76
2023/09/23 05:46:44;;;;;;;3.70;1.80;;;12.90;99.90;;;;;;5006466;28;20044;-76
2023/09/23 05:49:30;;;;;;;3.85;1.80;;;12.90;99.90;;;;;;5006831;28;20041;-75
2023/09/23 05:52:16;;;;;;;2.83;2.05;;;12.90;99.90;;;;;;5005648;28;20370;-76
2023/09/23 05:55:04;;;;;;;5.88;2.60;;;12.90;99.90;;;;;;5018848;28;20037;-76
2023/09/23 05:57:53;;;;;;;4.40;3.10;;;12.90;99.90;;;;;;5032253;28;20052;-75
2023/09/23 06:00:39;;;;;;;5.40;2.90;;;12.80;99.90;;;;;;4985754;28;20374;-75
2023/09/23 06:03:25;;;;;;;3.75;3.00;;;12.90;99.90;;;;;;5012998;28;20124;-75
2023/09/23 06:06:11;;;;;;;4.40;2.90;;;12.90;99.90;;;;;;5034625;28;20037;-76
2023/09/23 06:08:57;;;;;;;5.13;3.20;;;12.80;99.90;;;;;;5017746;28;20370;-76
2023/09/23 06:11:43;;;;;;;4.68;3.20;;;12.80;99.90;;;;;;5005619;28;20041;-75
2023/09/23 06:14:29;;;;;;;5.57;3.63;;;12.80;99.90;;;;;;5018295;28;20045;-75
2023/09/23 06:17:15;;;;;;;5.22;3.45;;;12.90;99.90;;;;;;5019492;28;20041;-75
2023/09/23 06:20:02;;;;;;;4.75;3.25;;;12.90;99.90;;;;;;5035832;28;20119;-76
2023/09/23 06:22:48;;;;;;;5.85;3.72;;;12.90;99.90;;;;;;5018469;28;20358;-76
2023/09/23 06:25:34;;;;;;;6.03;3.63;;;13.00;99.90;;;;;;5006739;28;20053;-76
2023/09/23 06:28:22;;;;;;;4.05;3.22;;;12.90;99.90;;;;;;5006710;28;20041;-75
2023/09/23 06:31:10;;;;;;;7.38;4.18;;;13.00;99.90;;;;;;5006233;28;20374;-75
2023/09/23 06:33:56;;;;;;;6.10;4.40;;;13.00;99.90;;;;;;5021362;28;20478;-75
2023/09/23 06:36:42;;;;;;;5.15;4.20;;;13.00;99.90;;;;;;4995900;28;20037;-75
2023/09/23 06:39:28;;;;;;;5.28;4.70;;;13.00;99.90;;;;;;5022346;28;20045;-75
2023/09/23 06:42:15;;;;;;;5.25;4.00;;;12.90;99.90;;;;;;5009364;28;20075;-75
2023/09/23 06:45:06;;;;;;;6.20;3.95;;;13.00;99.90;;;;;;5009383;28;20045;-75
2023/09/23 06:47:52;;;;;;;5.28;4.78;;;13.10;99.90;;;;;;5037426;28;20044;-73
2023/09/23 06:50:37;;;;;;;5.78;4.38;;;13.00;99.90;;;;;;5026808;28;20840;-74
2023/09/23 06:53:23;;;;;;;5.30;4.40;;;13.10;99.90;;;;;;5039047;28;20120;-74
2023/09/23 06:56:09;;;;;;;6.82;4.90;;;13.10;99.90;;;;;;5016331;28;20041;-74
2023/09/23 06:58:55;;;;;;;5.90;4.63;;;13.20;99.90;;;;;;5037789;28;20052;-74
2023/09/23 07:01:41;;;;;;;6.30;4.30;;;13.10;99.90;;;;;;5012316;28;20045;-73
2023/09/23 07:04:28;;;;;;;6.20;5.15;;;13.20;99.90;;;;;;5025673;28;20037;-73
2023/09/23 07:07:14;;;;;;;5.32;4.30;;;13.20;99.90;;;;;;4992147;28;20041;-73
2023/09/23 07:10:00;;;;;;;6.57;4.38;;;13.20;99.90;;;;;;5005150;28;20107;-73
2023/09/23 07:12:46;;;;;;;5.22;4.38;;;13.20;99.90;;;;;;5048276;28;20041;-73
2023/09/23 07:15:39;;;;;;;5.43;4.50;;;13.30;99.90;;;;;;5017490;28;20064;-73
2023/09/23 07:18:25;;;;;;;4.75;4.25;;;13.40;99.90;;;;;;5015594;28;20060;-73
2023/09/23 07:21:11;;;;;;;6.10;4.60;;;13.40;99.90;;;;;;4983345;28;20057;-73
2023/09/23 07:23:58;;;;;;;6.97;4.95;;;13.40;99.90;;;;;;5014843;28;20037;-73
2023/09/23 07:26:44;;;;;;;7.05;5.00;;;13.50;99.90;;;;;;5007677;28;20052;-73
2023/09/23 07:29:31;;;;;;;5.68;4.15;;;13.50;99.90;;;;;;5030098;28;20132;-73
2023/09/23 07:32:17;;;;;;;5.70;4.27;;;13.50;99.90;;;;;;5032528;28;20053;-73
2023/09/23 07:35:04;;;;;;;5.88;4.35;;;13.60;99.90;;;;;;5028324;28;20310;-73
2023/09/23 07:37:49;;;;;;;5.35;4.28;;;13.60;99.90;;;;;;5025776;28;20052;-73
2023/09/23 07:40:39;;;;;;;5.72;4.18;;;13.60;99.90;;;;;;5016734;28;20138;-73
2023/09/23 07:43:25;;;;;;;6.97;4.20;;;13.50;99.90;;;;;;5026716;28;20116;-73
2023/09/23 07:46:11;;;;;;;6.63;4.60;;;13.60;99.90;;;;;;5021528;28;20041;-73
2023/09/23 07:48:57;;;;;;;4.38;3.28;;;13.60;99.90;;;;;;5010812;28;20125;-73
2023/09/23 07:51:43;;;;;;;5.07;3.85;;;13.70;99.90;;;;;;5037374;28;20102;-74
2023/09/23 07:54:29;;;;;;;7.43;4.32;;;13.70;99.90;;;;;;5015722;28;20037;-73
2023/09/23 07:57:15;;;;;;;4.65;3.50;;;13.70;99.90;;;;;;5028694;28;20090;-73
2023/09/23 08:00:02;;;;;;;4.97;4.13;;;13.80;99.90;;;;;;5022335;28;20049;-73
2023/09/23 08:02:48;;;;;;;4.93;3.17;;;13.80;99.90;;;;;;5012865;28;20041;-73
2023/09/23 08:05:34;;;;;;;4.45;2.97;;;13.80;99.90;;;;;;5015601;28;20099;-73
2023/09/23 08:08:20;;;;;;;6.75;3.17;;;13.90;99.90;;;;;;4991129;28;20048;-73
2023/09/23 08:11:06;;;;;;;4.07;2.95;;;14.00;99.90;;;;;;5005057;28;20041;-73
2023/09/23 08:13:53;;;;;;;3.97;2.63;;;14.10;99.90;;;;;;5015947;28;20049;-73
2023/09/23 08:16:38;;;;;;;5.25;2.90;;;14.10;99.90;;;;;;4988357;28;20041;-73
2023/09/23 08:19:26;;;;;;;5.07;2.63;;;14.20;99.90;;;;;;5036395;28;20695;-73
2023/09/23 08:22:13;;;;;;;5.57;3.22;;;14.10;99.90;;;;;;5032054;28;20033;-73
2023/09/23 08:25:00;;;;;;;5.13;2.90;;;14.20;99.90;;;;;;5031265;28;20071;-73
2023/09/23 08:27:46;;;;;;;7.20;2.92;;;14.20;99.90;;;;;;5014791;28;20046;-73
2023/09/23 08:30:32;;;;;;;6.88;3.45;;;14.20;99.90;;;;;;5027257;28;20071;-74
2023/09/23 08:33:18;;;;;;;4.78;2.70;;;14.30;99.90;;;;;;5029950;28;20098;-73
2023/09/23 08:36:04;;;;;;;4.05;3.15;;;14.30;99.90;;;;;;5038188;28;20382;-73
2023/09/23 08:38:50;;;;;;;6.00;2.72;;;14.30;99.90;;;;;;4989965;28;20037;-73
2023/09/23 08:41:36;;;;;;;5.82;2.95;;;14.40;99.90;;;;;;5048065;28;20038;-73
2023/09/23 08:44:22;;;;;;;4.72;2.95;;;14.40;99.90;;;;;;5016249;28;20046;-73
2023/09/23 08:47:09;;;;;;;4.72;2.78;;;14.40;99.90;;;;;;5020337;28;20124;-73
2023/09/23 08:49:55;;;;;;;5.05;2.47;;;14.50;99.90;;;;;;5029528;28;20466;-73
2023/09/23 08:52:41;;;;;;;5.85;2.50;;;14.50;99.90;;;;;;5043722;28;20056;-74
2023/09/23 08:55:27;;;;;;;4.63;2.25;;;14.60;99.90;;;;;;5016605;28;20042;-74
2023/09/23 08:58:14;;;;;;;3.97;2.50;;;14.60;99.90;;;;;;5016764;28;20043;-74
2023/09/23 09:01:00;;;;;;;4.28;2.35;;;14.70;99.90;;;;;;5018182;28;20049;-74
2023/09/23 09:03:47;;;;;;;4.88;2.15;;;14.70;99.90;;;;;;5036764;28;20029;-74
2023/09/23 09:06:33;;;;;;;3.55;1.65;;;14.60;99.90;;;;;;5020937;28;20128;-74
2023/09/23 09:09:19;;;;;;;3.22;1.90;;;14.60;99.90;;;;;;4994254;28;20033;-74
2023/09/23 09:12:05;;;;;;;4.80;2.45;;;14.70;99.90;;;;;;4988698;28;20108;-74
2023/09/23 09:14:51;;;;;;;4.78;2.20;;;14.60;99.90;;;;;;4988551;28;20253;-74
2023/09/23 09:17:38;;;;;;;3.42;1.90;;;14.60;99.90;;;;;;5015029;28;20068;-74
2023/09/23 09:20:24;;;;;;;3.88;2.08;;;14.70;99.90;;;;;;4989453;28;20054;-74
2023/09/23 09:23:15;;;;;;;4.43;1.80;;;14.80;99.90;;;;;;4970319;28;20045;-74
2023/09/23 09:26:01;;;;;;;4.28;1.80;;;14.80;99.90;;;;;;4990232;28;20121;-74
2023/09/23 09:28:47;;;;;;;4.63;2.20;;;15.00;99.90;;;;;;4979308;28;20042;-74
2023/09/23 09:31:35;;;;;;;5.60;2.17;;;15.10;99.90;;;;;;4985516;28;20412;-74
2023/09/23 09:34:24;;;;;;;5.25;1.83;;;15.10;99.90;;;;;;4955090;28;20053;-74
2023/09/23 09:37:14;;;;;;;2.75;1.63;;;15.20;99.90;;;;;;5004286;28;20076;-74
2023/09/23 09:40:01;;;;;;;5.85;1.88;;;15.30;99.90;;;;;;4955266;28;20471;-74
2023/09/23 09:42:54;;;;;;;5.93;1.50;;;15.30;99.90;;;;;;4957388;28;20053;-74
2023/09/23 09:45:42;;;;;;;6.50;1.83;;;15.50;99.90;;;;;;4970881;28;20033;-74
2023/09/23 09:48:30;;;;;;;4.05;1.77;;;15.70;99.90;;;;;;4979298;28;20050;-74
2023/09/23 09:51:16;;;;;;;3.70;1.65;;;15.70;99.90;;;;;;4990776;28;20041;-74
2023/09/23 09:54:02;;;;;;;4.00;1.83;;;15.90;99.90;;;;;;4964728;28;20046;-75
2023/09/23 09:56:51;;;;;;;5.05;2.10;;;15.90;99.90;;;;;;4989858;28;20399;-74
2023/09/23 09:59:37;;;;;;;5.50;2.22;;;15.90;99.90;;;;;;5005365;28;20123;-74
2023/09/23 10:02:23;;;;;;;4.72;1.70;;;15.70;99.90;;;;;;4966414;28;20112;-73
2023/09/23 10:05:18;;;;;;;6.13;1.95;;;15.70;99.90;;;;;;4991879;28;20136;-73
2023/09/23 10:08:13;;;;;;;3.88;1.60;;;15.70;99.90;;;;;;4966920;28;20035;-73
2023/09/23 10:11:02;;;;;;;4.40;1.70;;;15.50;99.90;;;;;;4984889;28;20046;-74
2023/09/23 10:13:49;;;;;;;5.03;1.70;;;15.60;99.90;;;;;;4994931;28;20053;-74
2023/09/23 10:16:35;;;;;;;4.15;1.75;;;15.70;99.90;;;;;;4994633;28;20048;-74
2023/09/23 10:19:37;;;;;;;5.03;2.25;;;15.60;99.90;;;;;;5023488;28;20057;-74
2023/09/23 10:22:24;;;;;;;6.18;1.85;;;15.70;99.90;;;;;;4998659;28;20129;-74
2023/09/23 10:25:11;;;;;;;5.07;2.10;;;15.90;99.90;;;;;;5009594;28;20053;-74
2023/09/23 10:27:59;;;;;;;3.58;1.80;;;15.90;99.90;;;;;;4995563;28;20042;-75
2023/09/23 10:30:54;;;;;;;3.47;1.67;;;15.80;99.90;;;;;;4995727;28;20069;-75
2023/09/23 10:33:40;;;;;;;4.43;1.90;;;15.80;99.90;;;;;;5009743;28;20038;-73
2023/09/23 10:36:26;;;;;;;5.20;1.90;;;15.80;99.90;;;;;;5006627;28;20550;-73
2023/09/23 10:39:15;;;;;;;4.93;2.03;;;15.80;99.90;;;;;;4995066;28;20049;-73
2023/09/23 10:42:01;;;;;;;5.90;2.08;;;16.20;99.90;;;;;;5000600;28;20050;-73
2023/09/23 10:44:47;;;;;;;6.22;2.22;;;16.30;99.90;;;;;;4977976;28;20026;-73
2023/09/23 10:47:36;;;;;;;4.60;1.92;;;16.80;99.90;;;;;;4993363;28;20038;-73
2023/09/23 10:50:22;;;;;;;4.95;2.00;;;16.90;99.90;;;;;;4979265;28;20049;-73
2023/09/23 10:53:08;;;;;;;4.22;1.80;;;16.80;99.60;;;;;;5024790;28;20524;-73
2023/09/23 10:56:03;;;;;;;4.82;1.58;;;17.00;99.90;;;;;;4987577;28;20180;-73
2023/09/23 10:58:51;;;;;;;4.10;1.50;;;17.10;99.90;;;;;;4972147;28;20054;-73
2023/09/23 11:01:37;;;;;;;3.00;1.40;;;17.20;99.60;;;;;;4985988;28;20122;-73
2023/09/23 11:04:23;;;;;;;4.45;1.83;;;17.40;99.40;;;;;;4968669;28;20039;-73
2023/09/23 11:07:09;;;;;;;4.07;1.65;;;17.60;98.70;;;;;;4983141;28;20470;-73
2023/09/23 11:09:56;;;;;;;3.58;1.55;;;17.70;99.20;;;;;;4977470;28;20474;-72
2023/09/23 11:12:43;;;;;;;5.35;2.10;;;17.40;98.50;;;;;;4970155;28;20109;-72
2023/09/23 11:15:30;;;;;;;4.32;1.60;;;17.30;98.60;;;;;;4985915;28;20066;-72
2023/09/23 11:18:17;;;;;;;6.00;1.80;;;17.80;98.60;;;;;;4977302;28;20053;-72
2023/09/23 11:21:03;;;;;;;7.40;1.85;;;17.70;98.40;;;;;;4966375;28;20054;-72
2023/09/23 11:23:58;;;;;;;4.57;1.80;;;17.50;98.40;;;;;;5003430;28;20056;-72
2023/09/23 11:26:45;;;;;;;3.75;1.67;;;17.00;99.30;;;;;;4981001;28;20127;-72
2023/09/23 11:29:32;;;;;;;5.85;2.10;;;16.80;99.20;;;;;;4992611;28;20120;-72
2023/09/23 11:32:25;;;;;;;6.47;1.90;;;16.80;99.40;;;;;;4983840;28;20121;-72
2023/09/23 11:35:11;;;;;;;5.53;1.70;;;16.70;99.60;;;;;;4973215;28;20121;-72
2023/09/23 11:37:57;;;;;;;2.38;1.30;;;16.80;99.90;;;;;;5001856;28;20076;-72
2023/09/23 11:40:46;;;;;;;3.90;1.40;;;17.10;99.50;;;;;;4974164;28;20043;-72
2023/09/23 11:43:32;;;;;;;3.60;1.55;;;17.20;98.70;;;;;;4986187;28;20045;-71
2023/09/23 11:46:20;;;;;;;4.50;1.67;;;17.70;99.20;;;;;;4975919;28;20352;-71
2023/09/23 11:49:06;;;;;;;;;;;17.80;97.90;;;;;;4980586;28;20045;-71
2023/09/23 11:51:52;;;;;;;4.30;1.80;;;17.90;97.70;;;;;;5000034;28;19925;-72
2023/09/23 11:54:42;;;;;;;3.45;1.70;;;18.10;97.40;;;;;;4956403;28;20054;-71
2023/09/23 11:57:28;;;;;;;5.03;1.85;;;18.10;97.50;;;;;;4968596;28;20043;-71
2023/09/23 12:00:15;;;;;;;5.07;1.90;;;18.20;98.10;;;;;;4972587;28;20443;-71
2023/09/23 12:03:01;;;;;;;6.43;2.00;;;18.20;97.10;;;;;;4981668;28;20108;-71
2023/09/23 12:05:48;;;;;;;3.63;1.73;;;18.00;97.90;;;;;;5022487;28;20343;-71
2023/09/23 12:08:35;;;;;;;5.82;1.90;;;17.70;98.30;;;;;;4986596;28;20121;-72
2023/09/23 12:11:21;;;;;;;7.85;2.13;;;17.50;98.50;;;;;;4992326;28;20049;-71
2023/09/23 12:14:11;;;;;;;7.10;1.85;;;17.40;98.80;;;;;;4974516;28;20057;-72
2023/09/23 12:16:57;;;;;;;6.85;1.77;;;17.30;99.10;;;;;;4959878;28;20048;-71
2023/09/23 12:19:44;;;;;;;8.02;2.35;;;17.40;99.50;;;;;;4972278;28;20051;-71
2023/09/23 12:22:30;;;;;;;7.18;2.13;;;17.60;98.90;;;;;;5003160;28;20042;-72
2023/09/23 12:25:17;;;;;;;4.30;2.17;;;17.50;98.70;;;;;;4992648;28;20082;-72
2023/09/23 12:28:05;;;;;;;5.22;2.00;;;17.60;98.30;;;;;;4992964;28;20043;-71
2023/09/23 12:30:50;;;;;;;6.05;2.08;;;17.60;98.30;;;;;;5002248;28;20052;-72
2023/09/23 12:33:36;;;;;;;3.58;1.73;;;17.40;99.10;;;;;;4979462;28;20151;-72
2023/09/23 12:36:23;;;;;;;5.68;1.70;;;17.20;98.40;;;;;;4992856;28;20329;-72
2023/09/23 12:39:10;;;;;;;3.40;1.80;;;17.10;98.10;;;;;;5007399;28;20046;-72
2023/09/23 12:41:56;;;;;;;4.43;1.90;;;17.10;99.10;;;;;;4998063;28;20046;-72
2023/09/23 12:44:43;;;;;;;3.83;1.63;;;17.10;98.80;;;;;;4979413;28;20356;-71
2023/09/23 12:47:30;;;;;;;4.45;1.73;;;17.00;99.30;;;;;;4977630;28;20049;-72
2023/09/23 12:50:17;;;;;;;5.13;1.98;;;17.20;99.20;;;;;;5005881;28;20432;-71
2023/09/23 12:53:05;;;;;;;9.32;2.08;;;17.20;99.40;;;;;;5020887;28;20091;-71
2023/09/23 12:55:50;;;;;;;4.57;1.63;;;17.20;99.20;;;;;;4998719;28;20065;-72
2023/09/23 12:58:39;;;;;;;6.22;1.85;;;17.50;98.60;;;;;;4981766;28;20108;-73
2023/09/23 13:01:25;;;;;;;;;;;18.20;97.90;;;;;;4968198;28;20462;-72
2023/09/23 13:04:11;;;;;;;5.32;1.75;;;18.30;98.00;;;;;;4993285;28;20289;-71
2023/09/23 13:06:57;;;;;;;2.88;1.55;;;18.20;97.00;;;;;;4978083;28;20042;-71
2023/09/23 13:09:42;;;;;;;5.57;1.60;;;17.90;97.20;;;;;;4988865;28;20460;-71
2023/09/23 13:12:28;;;;;;;3.05;1.38;;;17.80;96.80;;;;;;4996688;28;20100;-71
2023/09/23 13:15:15;;;;;;;3.20;1.42;;;18.00;97.00;;;;;;4992040;28;20761;-71
2023/09/23 13:18:02;;;;;;;5.05;1.50;;;18.20;96.00;;;;;;4997298;28;20426;-71
2023/09/23 13:20:48;;;;;;;2.70;1.48;;;18.30;95.90;;;;;;5025737;28;20107;-71
2023/09/23 13:23:36;;;;;;;4.28;1.75;;;18.30;95.90;;;;;;5009066;28;20033;-71
2023/09/23 13:26:22;;;;;;;3.10;1.63;;;18.00;96.30;;;;;;5009060;28;20114;-71
2023/09/23 13:29:08;;;;;;;5.20;1.77;;;17.90;97.10;;;;;;5005487;28;20042;-71
2023/09/23 13:31:54;;;;;;;4.38;1.80;;;17.80;97.30;;;;;;5029423;28;20124;-71
2023/09/23 13:34:41;;;;;;;6.05;1.70;;;17.90;97.60;;;;;;5010927;28;20065;-71
2023/09/23 13:37:27;;;;;;;6.28;2.00;;;18.10;97.50;;;;;;5020678;28;20045;-71
2023/09/23 13:40:13;;;;;;;4.97;2.08;;;18.10;97.40;;;;;;5025370;28;20076;-71
2023/09/23 13:42:59;;;;;;;6.65;2.08;;;18.20;97.90;;;;;;5037593;28;20041;-71
2023/09/23 13:45:45;;;;;;;4.75;2.03;;;18.00;97.30;;;;;;5037653;28;20088;-71
2023/09/23 13:48:31;;;;;;;4.55;2.00;;;17.80;97.90;;;;;;4998252;28;20046;-71
2023/09/23 13:51:17;;;;;;;6.72;1.60;;;17.70;98.10;;;;;;5004867;28;20041;-72
2023/09/23 13:54:03;;;;;;;4.28;1.95;;;17.60;98.20;;;;;;5030545;28;20457;-71
2023/09/23 13:56:49;;;;;;;5.63;1.50;;;17.50;98.30;;;;;;5024429;28;20041;-71
2023/09/23 13:59:35;;;;;;;4.05;1.60;;;17.50;98.00;;;;;;5036288;28;20370;-72
2023/09/23 14:02:21;;;;;;;5.95;1.73;;;17.40;98.60;;;;;;5034825;28;20045;-71
2023/09/23 14:05:08;;;;;;;3.33;1.40;;;17.40;97.90;;;;;;5033459;28;20037;-72
2023/09/23 14:07:54;;;;;;;4.82;1.70;;;17.50;98.40;;;;;;5034755;28;20041;-71
2023/09/23 14:10:40;;;;;;;2.70;1.60;;;17.40;98.40;;;;;;5008858;28;20049;-71
2023/09/23 14:13:26;;;;;;;4.32;1.60;;;17.30;98.50;;;;;;5015990;28;20037;-71
2023/09/23 14:16:11;;;;;;;5.32;1.50;;;17.20;97.90;;;;;;5021853;28;20053;-71
2023/09/23 14:19:00;;;;;;;3.65;1.30;;;17.10;98.10;;;;;;5047693;28;20044;-71
2023/09/23 14:21:46;;;;;;;3.90;1.45;;;17.20;98.60;;;;;;5023989;28;20041;-72
2023/09/23 14:24:32;;;;;;;2.92;1.13;;;17.20;98.00;;;;;;5020671;28;20110;-71
2023/09/23 14:27:18;;;;;;;6.13;1.33;;;17.10;97.50;;;;;;5041623;28;20846;-71
2023/09/23 14:30:08;;;;;;;2.97;1.42;;;17.10;97.80;;;;;;5031565;28;20042;-71